createdAt,value
2023-05-14T00:02:02.530Z,100.00
2023-05-14T00:04:30.604Z,100.00
2023-05-14T00:06:59.159Z,100.00
2023-05-14T00:09:27.414Z,100.00
2023-05-14T00:11:55.697Z,100.00
2023-05-14T00:14:24.208Z,100.00
2023-05-14T00:16:52.353Z,100.00
2023-05-14T00:19:20.803Z,100.00
2023-05-14T00:21:49.218Z,100.00
2023-05-14T00:24:17.707Z,100.00
2023-05-14T00:26:45.891Z,100.00
2023-05-14T00:29:14.207Z,100.00
2023-05-14T00:31:42.308Z,100.00
2023-05-14T00:34:10.540Z,100.00
2023-05-14T00:36:38.626Z,100.00
2023-05-14T00:39:07.266Z,100.00
2023-05-14T00:41:36.203Z,100.00
2023-05-14T00:44:04.861Z,100.00
2023-05-14T00:46:32.913Z,100.00
2023-05-14T00:49:01.233Z,100.00
2023-05-14T00:51:29.983Z,100.00
2023-05-14T00:53:58.221Z,100.00
2023-05-14T00:56:28.196Z,100.00
2023-05-14T00:58:56.572Z,100.00
2023-05-14T01:01:24.930Z,100.00
2023-05-14T01:03:54.986Z,100.00
2023-05-14T01:06:43.304Z,100.00
2023-05-14T01:09:24.977Z,100.00
2023-05-14T01:12:13.834Z,100.00
2023-05-14T01:15:01.537Z,100.00
2023-05-14T01:17:33.440Z,100.00
2023-05-14T01:20:02.477Z,100.00
2023-05-14T01:22:30.714Z,100.00
2023-05-14T01:24:58.822Z,100.00
2023-05-14T01:27:38.972Z,100.00
2023-05-14T01:30:10.731Z,100.00
2023-05-14T01:32:40.959Z,100.00
2023-05-14T01:35:10.784Z,100.00
2023-05-14T01:37:41.896Z,100.00
2023-05-14T01:40:14.222Z,100.00
2023-05-14T01:42:43.519Z,100.00
2023-05-14T01:45:11.960Z,100.00
2023-05-14T01:47:40.109Z,100.00
2023-05-14T01:50:08.932Z,100.00
2023-05-14T01:52:37.181Z,100.00
2023-05-14T01:55:06.279Z,100.00
2023-05-14T01:57:34.692Z,100.00
2023-05-14T02:00:04.453Z,100.00
2023-05-14T02:02:42.257Z,100.00
2023-05-14T02:05:13.580Z,100.00
2023-05-14T02:07:41.932Z,100.00
2023-05-14T02:10:10.830Z,100.00
2023-05-14T02:12:39.115Z,100.00
2023-05-14T02:15:09.103Z,100.00
2023-05-14T02:17:37.400Z,100.00
2023-05-14T02:20:07.093Z,100.00
2023-05-14T02:22:35.302Z,100.00
2023-05-14T02:25:03.973Z,100.00
2023-05-14T02:27:32.016Z,100.00
2023-05-14T02:30:01.036Z,100.00
2023-05-14T02:32:29.270Z,100.00
2023-05-14T02:34:57.714Z,100.00
2023-05-14T02:37:26.199Z,100.00
2023-05-14T02:39:54.397Z,100.00
2023-05-14T02:42:24.104Z,100.00
2023-05-14T02:44:53.278Z,100.00
2023-05-14T02:47:21.795Z,100.00
2023-05-14T02:49:50.423Z,100.00
2023-05-14T02:52:18.726Z,100.00
2023-05-14T02:54:47.001Z,100.00
2023-05-14T02:57:15.390Z,100.00
2023-05-14T02:59:43.577Z,100.00
2023-05-14T03:02:12.258Z,100.00
2023-05-14T03:04:40.885Z,100.00
2023-05-14T03:07:09.115Z,100.00
2023-05-14T03:09:38.362Z,100.00
2023-05-14T03:12:08.080Z,100.00
2023-05-14T03:14:36.314Z,100.00
2023-05-14T03:17:04.608Z,100.00
2023-05-14T03:19:33.084Z,100.00
2023-05-14T03:22:01.650Z,100.00
2023-05-14T03:24:29.862Z,100.00
2023-05-14T03:26:58.093Z,100.00
2023-05-14T03:29:26.542Z,100.00
2023-05-14T03:31:54.866Z,100.00
2023-05-14T03:34:23.329Z,100.00
2023-05-14T03:36:51.440Z,100.00
2023-05-14T03:39:20.028Z,100.00
2023-05-14T03:41:48.628Z,100.00
2023-05-14T03:44:17.071Z,100.00
2023-05-14T03:46:45.734Z,100.00
2023-05-14T03:49:14.084Z,100.00
2023-05-14T03:51:42.097Z,100.00
2023-05-14T03:54:10.698Z,100.00
2023-05-14T03:56:39.295Z,100.00
2023-05-14T03:59:07.459Z,100.00
2023-05-14T04:01:35.848Z,100.00
2023-05-14T04:04:04.288Z,100.00
2023-05-14T04:06:33.487Z,100.00
2023-05-14T04:09:03.566Z,100.00
2023-05-14T04:11:31.717Z,100.00
2023-05-14T04:14:01.039Z,100.00
2023-05-14T04:16:30.133Z,100.00
2023-05-14T04:18:58.608Z,100.00
2023-05-14T04:21:26.983Z,100.00
2023-05-14T04:23:55.159Z,100.00
2023-05-14T04:26:23.257Z,100.00
2023-05-14T04:28:51.493Z,100.00
2023-05-14T04:31:19.865Z,100.00
2023-05-14T04:33:48.266Z,100.00
2023-05-14T04:36:16.599Z,100.00
2023-05-14T04:38:44.952Z,100.00
2023-05-14T04:41:13.085Z,100.00
2023-05-14T04:43:41.303Z,100.00
2023-05-14T04:46:09.560Z,100.00
2023-05-14T04:48:37.926Z,100.00
2023-05-14T04:51:07.174Z,100.00
2023-05-14T04:53:35.715Z,100.00
2023-05-14T04:56:03.774Z,100.00
2023-05-14T04:58:34.585Z,100.00
2023-05-14T05:01:05.212Z,100.00
2023-05-14T05:03:33.570Z,100.00
2023-05-14T05:06:02.064Z,100.00
2023-05-14T05:08:30.962Z,100.00
2023-05-14T05:10:59.223Z,100.00
2023-05-14T05:13:27.483Z,100.00
2023-05-14T05:15:55.846Z,100.00
2023-05-14T05:18:24.455Z,100.00
2023-05-14T05:20:52.583Z,100.00
2023-05-14T05:23:20.906Z,100.00
2023-05-14T05:25:50.016Z,100.00
2023-05-14T05:28:18.099Z,100.00
2023-05-14T05:30:46.356Z,100.00
2023-05-14T05:33:14.653Z,100.00
2023-05-14T05:35:44.649Z,100.00
2023-05-14T05:38:12.929Z,100.00
2023-05-14T05:40:41.317Z,100.00
2023-05-14T05:43:09.480Z,100.00
2023-05-14T05:45:37.812Z,100.00
2023-05-14T05:48:06.400Z,100.00
2023-05-14T05:50:34.515Z,100.00
2023-05-14T05:53:03.112Z,100.00
2023-05-14T05:55:31.180Z,100.00
2023-05-14T05:57:59.485Z,100.00
2023-05-14T06:00:27.773Z,100.00
2023-05-14T06:02:56.689Z,100.00
2023-05-14T06:05:25.069Z,100.00
2023-05-14T06:07:53.826Z,100.00
2023-05-14T06:10:22.346Z,100.00
2023-05-14T06:12:50.969Z,100.00
2023-05-14T06:15:19.320Z,100.00
2023-05-14T06:17:47.472Z,100.00
2023-05-14T06:20:15.993Z,100.00
2023-05-14T06:22:44.146Z,100.00
2023-05-14T06:25:12.371Z,100.00
2023-05-14T06:27:40.741Z,100.00
2023-05-14T06:30:11.166Z,100.00
2023-05-14T06:32:39.393Z,100.00
2023-05-14T06:35:08.265Z,100.00
2023-05-14T06:37:36.428Z,100.00
2023-05-14T06:40:05.719Z,100.00
2023-05-14T06:42:33.901Z,100.00
2023-05-14T06:45:02.593Z,99.87
2023-05-14T06:47:30.809Z,99.95
2023-05-14T06:50:01.200Z,97.26
2023-05-14T06:52:29.462Z,99.54
2023-05-14T06:54:57.660Z,99.55
2023-05-14T06:57:26.015Z,97.19
2023-05-14T06:59:54.193Z,93.32
2023-05-14T07:02:22.520Z,91.33
2023-05-14T07:04:50.922Z,89.86
2023-05-14T07:07:21.216Z,88.03
2023-05-14T07:09:49.456Z,86.27
2023-05-14T07:12:17.668Z,86.24
2023-05-14T07:14:46.800Z,83.31
2023-05-14T07:17:15.434Z,79.29
2023-05-14T07:19:43.733Z,74.98
2023-05-14T07:22:11.866Z,76.50
2023-05-14T07:24:39.908Z,72.85
2023-05-14T07:27:08.746Z,68.29
2023-05-14T07:29:37.115Z,68.48
2023-05-14T07:32:05.508Z,69.78
2023-05-14T07:34:33.777Z,71.01
2023-05-14T07:37:02.328Z,70.72
2023-05-14T07:39:30.447Z,71.38
2023-05-14T07:41:58.610Z,69.75
2023-05-14T07:44:26.608Z,68.28
2023-05-14T07:46:55.080Z,68.02
2023-05-14T07:49:23.444Z,67.56
2023-05-14T07:51:51.412Z,68.81
2023-05-14T07:54:19.537Z,66.87
2023-05-14T07:56:47.691Z,65.96
2023-05-14T07:59:15.967Z,66.27
2023-05-14T08:01:44.560Z,66.10
2023-05-14T08:04:13.157Z,64.28
2023-05-14T08:06:41.636Z,64.14
2023-05-14T08:09:09.884Z,63.10
2023-05-14T08:11:39.485Z,63.20
2023-05-14T08:14:07.992Z,61.35
2023-05-14T08:16:36.390Z,62.63
2023-05-14T08:19:04.778Z,61.24
2023-05-14T08:21:33.212Z,61.17
2023-05-14T08:24:01.796Z,60.26
2023-05-14T08:26:29.890Z,59.93
2023-05-14T08:28:58.350Z,60.59
2023-05-14T08:31:26.501Z,59.88
2023-05-14T08:33:54.910Z,58.85
2023-05-14T08:36:23.294Z,59.03
2023-05-14T08:38:51.593Z,56.85
2023-05-14T08:41:20.155Z,57.47
2023-05-14T08:44:02.059Z,57.80
2023-05-14T08:46:31.915Z,57.16
2023-05-14T08:49:36.099Z,56.60
2023-05-14T08:52:05.188Z,55.76
2023-05-14T08:54:33.718Z,56.16
2023-05-14T08:57:03.809Z,56.13
2023-05-14T08:59:32.402Z,53.51
2023-05-14T09:02:06.535Z,53.11
2023-05-14T09:04:36.209Z,53.57
2023-05-14T09:07:04.786Z,52.82
2023-05-14T09:09:33.401Z,52.65
2023-05-14T09:12:02.574Z,51.15
2023-05-14T09:14:30.710Z,51.17
2023-05-14T09:16:59.435Z,49.41
2023-05-14T09:19:28.332Z,48.69
2023-05-14T09:21:59.387Z,48.38
2023-05-14T09:24:31.846Z,47.82
2023-05-14T09:27:00.003Z,47.66
2023-05-14T09:29:29.650Z,46.93
2023-05-14T09:31:58.822Z,46.05
2023-05-14T09:34:29.467Z,46.67
2023-05-14T09:36:59.902Z,46.35
2023-05-14T09:39:28.997Z,45.88
2023-05-14T09:41:57.637Z,46.35
2023-05-14T09:44:26.481Z,46.54
2023-05-14T09:46:55.491Z,46.71
2023-05-14T09:49:23.982Z,47.50
2023-05-14T09:51:52.334Z,48.34
2023-05-14T09:54:20.706Z,48.97
2023-05-14T09:56:48.984Z,49.66
2023-05-14T09:59:17.032Z,49.87
2023-05-14T10:01:46.407Z,49.62
2023-05-14T10:04:15.494Z,49.61
2023-05-14T10:06:46.123Z,49.24
2023-05-14T10:09:17.165Z,50.44
2023-05-14T10:11:53.002Z,51.09
2023-05-14T10:14:27.132Z,50.46
2023-05-14T10:16:59.632Z,49.59
2023-05-14T10:19:31.365Z,49.68
2023-05-14T10:22:10.397Z,50.22
2023-05-14T10:24:39.145Z,49.40
2023-05-14T10:27:07.288Z,49.24
2023-05-14T10:29:37.685Z,49.33
2023-05-14T10:32:08.196Z,49.61
2023-05-14T10:34:44.277Z,50.40
2023-05-14T10:37:19.660Z,50.14
2023-05-14T10:39:55.009Z,49.77
2023-05-14T10:42:36.078Z,50.48
2023-05-14T10:45:08.250Z,51.24
2023-05-14T10:47:38.055Z,51.76
2023-05-14T10:50:08.703Z,50.91
2023-05-14T10:52:37.310Z,52.12
2023-05-14T10:55:13.178Z,52.66
2023-05-14T10:57:43.959Z,53.02
2023-05-14T11:00:14.188Z,53.41
2023-05-14T11:02:44.835Z,51.81
2023-05-14T11:05:17.966Z,52.28
2023-05-14T11:07:50.555Z,51.98
2023-05-14T11:10:20.996Z,51.52
2023-05-14T11:12:51.251Z,51.64
2023-05-14T11:15:23.065Z,50.83
2023-05-14T11:17:53.003Z,50.60
2023-05-14T11:20:21.530Z,50.63
2023-05-14T11:22:51.956Z,50.13
2023-05-14T11:25:21.979Z,49.81
2023-05-14T11:27:50.742Z,49.50
2023-05-14T11:30:20.124Z,50.30
2023-05-14T11:32:50.088Z,48.99
2023-05-14T11:35:19.027Z,48.95
2023-05-14T11:37:54.366Z,49.03
2023-05-14T11:40:22.762Z,48.44
2023-05-14T11:42:53.632Z,49.39
2023-05-14T11:45:26.883Z,49.77
2023-05-14T11:47:55.121Z,49.85
2023-05-14T11:50:23.966Z,49.21
2023-05-14T11:52:57.161Z,49.67
2023-05-14T11:55:25.655Z,50.20
2023-05-14T11:57:54.533Z,50.26
2023-05-14T12:00:24.900Z,49.95
2023-05-14T12:02:54.749Z,50.16
2023-05-14T12:05:23.036Z,50.12
2023-05-14T12:07:51.264Z,49.91
2023-05-14T12:10:19.387Z,50.67
2023-05-14T12:12:49.003Z,51.39
2023-05-14T12:15:17.510Z,52.39
2023-05-14T12:17:52.056Z,54.03
2023-05-14T12:20:20.947Z,54.76
2023-05-14T12:22:49.406Z,56.65
2023-05-14T12:25:17.554Z,59.22
2023-05-14T12:27:45.600Z,59.71
2023-05-14T12:32:46.657Z,60.39
2023-05-14T12:35:15.290Z,60.56
2023-05-14T12:37:43.385Z,61.74
2023-05-14T12:40:12.140Z,62.24
2023-05-14T12:42:40.264Z,62.33
2023-05-14T12:45:08.965Z,63.32
2023-05-14T12:47:37.607Z,65.12
2023-05-14T12:50:07.096Z,63.92
2023-05-14T12:52:39.175Z,66.02
2023-05-14T12:55:09.478Z,66.82
2023-05-14T12:57:39.280Z,68.44
2023-05-14T13:00:21.219Z,71.22
2023-05-14T13:02:49.723Z,69.52
2023-05-14T13:05:18.105Z,70.11
2023-05-14T13:07:46.347Z,70.90
2023-05-14T13:10:14.630Z,72.82
2023-05-14T13:12:42.758Z,72.85
2023-05-14T13:15:11.733Z,73.22
2023-05-14T13:17:41.549Z,74.24
2023-05-14T13:20:10.283Z,76.75
2023-05-14T13:22:38.619Z,76.72
2023-05-14T13:25:07.888Z,77.18
2023-05-14T13:27:37.182Z,79.38
2023-05-14T13:30:06.294Z,78.58
2023-05-14T13:32:34.583Z,78.39
2023-05-14T13:35:02.990Z,79.20
2023-05-14T13:37:31.010Z,80.34
2023-05-14T13:39:59.143Z,78.59
2023-05-14T13:42:27.394Z,80.27
2023-05-14T13:44:56.563Z,80.15
2023-05-14T13:47:25.980Z,79.21
2023-05-14T13:49:55.264Z,78.44
2023-05-14T13:52:23.308Z,81.39
2023-05-14T13:54:51.528Z,81.82
2023-05-14T13:57:20.349Z,81.90
2023-05-14T13:59:48.597Z,79.52
2023-05-14T14:02:16.670Z,80.06
2023-05-14T14:04:45.206Z,79.60
2023-05-14T14:07:13.445Z,79.05
2023-05-14T14:09:41.593Z,79.37
2023-05-14T14:12:10.469Z,79.81
2023-05-14T14:14:39.193Z,81.98
2023-05-14T14:17:09.195Z,81.34
2023-05-14T14:19:37.491Z,82.11
2023-05-14T14:22:05.855Z,83.11
2023-05-14T14:24:34.176Z,82.48
2023-05-14T14:27:02.496Z,82.74
2023-05-14T14:29:31.502Z,81.24
2023-05-14T14:31:59.610Z,81.44
2023-05-14T14:34:28.170Z,80.92
2023-05-14T14:36:56.277Z,81.91
2023-05-14T14:39:25.543Z,81.82
2023-05-14T14:41:53.579Z,82.49
2023-05-14T14:44:21.728Z,82.20
2023-05-14T14:46:49.840Z,82.08
2023-05-14T14:49:17.909Z,84.13
2023-05-14T14:51:47.150Z,83.88
2023-05-14T14:54:15.704Z,84.01
2023-05-14T14:56:46.087Z,84.28
2023-05-14T14:59:14.105Z,84.54
2023-05-14T15:01:42.470Z,84.27
2023-05-14T15:04:10.787Z,84.39
2023-05-14T15:06:39.061Z,85.52
2023-05-14T15:09:07.870Z,85.04
2023-05-14T15:11:37.502Z,84.57
2023-05-14T15:14:06.315Z,84.69
2023-05-14T15:16:34.507Z,85.11
2023-05-14T15:19:02.812Z,84.56
2023-05-14T15:21:32.238Z,85.24
2023-05-14T15:24:00.497Z,83.75
2023-05-14T15:26:28.875Z,83.06
2023-05-14T15:28:58.804Z,81.99
2023-05-14T15:31:27.194Z,81.53
2023-05-14T15:33:56.296Z,81.53
2023-05-14T15:36:24.557Z,81.28
2023-05-14T15:38:52.784Z,81.48
2023-05-14T15:41:21.344Z,81.89
2023-05-14T15:43:49.586Z,81.98
2023-05-14T15:46:18.015Z,81.57
2023-05-14T15:48:46.346Z,81.45
2023-05-14T15:51:14.773Z,80.81
2023-05-14T15:53:43.214Z,80.62
2023-05-14T15:56:11.463Z,81.19
2023-05-14T15:58:39.676Z,83.14
2023-05-14T16:01:07.740Z,82.26
2023-05-14T16:03:36.002Z,82.45
2023-05-14T16:06:04.840Z,83.23
2023-05-14T16:08:33.190Z,83.81
2023-05-14T16:11:01.474Z,83.80
2023-05-14T16:13:29.640Z,84.02
2023-05-14T16:15:59.752Z,84.39
2023-05-14T16:18:28.199Z,85.38
2023-05-14T16:20:56.731Z,85.29
2023-05-14T16:23:25.036Z,85.35
2023-05-14T16:25:53.700Z,85.85
2023-05-14T16:28:21.717Z,86.26
2023-05-14T16:30:50.145Z,85.75
2023-05-14T16:33:18.323Z,85.77
2023-05-14T16:35:46.538Z,85.34
2023-05-14T16:38:14.552Z,85.64
2023-05-14T16:40:42.900Z,85.42
2023-05-14T16:43:11.430Z,85.10
2023-05-14T16:45:40.636Z,84.72
2023-05-14T16:48:08.844Z,84.87
2023-05-14T16:50:37.246Z,85.00
2023-05-14T16:53:05.498Z,84.90
2023-05-14T16:55:33.644Z,84.78
2023-05-14T16:58:01.875Z,84.91
2023-05-14T17:00:30.094Z,85.40
2023-05-14T17:02:58.325Z,85.81
2023-05-14T17:05:26.763Z,85.39
2023-05-14T17:07:55.026Z,84.77
2023-05-14T17:10:25.328Z,84.98
2023-05-14T17:12:53.644Z,84.69
2023-05-14T17:15:41.991Z,84.97
2023-05-14T17:18:12.080Z,86.17
2023-05-14T17:20:40.646Z,85.98
2023-05-14T17:23:08.995Z,86.02
2023-05-14T17:25:37.441Z,85.51
2023-05-14T17:28:05.698Z,85.47
2023-05-14T17:30:33.947Z,85.16
2023-05-14T17:33:02.197Z,84.71
2023-05-14T17:35:30.693Z,84.79
2023-05-14T17:38:00.456Z,85.15
2023-05-14T17:40:29.186Z,85.68
2023-05-14T17:42:57.311Z,85.27
2023-05-14T17:45:26.730Z,84.79
2023-05-14T17:47:55.177Z,85.02
2023-05-14T17:50:23.498Z,84.96
2023-05-14T17:52:51.818Z,84.92
2023-05-14T17:55:19.871Z,85.08
2023-05-14T17:57:48.232Z,84.78
2023-05-14T18:00:17.246Z,84.60
2023-05-14T18:02:45.390Z,84.76
2023-05-14T18:05:13.644Z,84.42
2023-05-14T18:07:41.878Z,83.83
2023-05-14T18:10:10.921Z,83.32
2023-05-14T18:12:39.153Z,82.25
2023-05-14T18:15:08.040Z,81.70
2023-05-14T18:17:36.276Z,81.14
2023-05-14T18:20:05.551Z,80.54
2023-05-14T18:22:33.974Z,80.26
2023-05-14T18:25:02.606Z,80.85
2023-05-14T18:27:31.149Z,81.82
2023-05-14T18:29:59.354Z,82.13
2023-05-14T18:32:27.593Z,82.25
2023-05-14T18:34:55.797Z,82.78
2023-05-14T18:37:23.985Z,83.18
2023-05-14T18:39:52.158Z,83.41
2023-05-14T18:42:20.296Z,83.18
2023-05-14T18:44:48.298Z,83.21
2023-05-14T18:47:16.670Z,83.63
2023-05-14T18:49:44.862Z,84.11
2023-05-14T18:52:13.456Z,84.00
2023-05-14T18:54:41.649Z,83.81
2023-05-14T18:57:10.309Z,83.32
2023-05-14T18:59:38.540Z,82.69
2023-05-14T19:02:07.094Z,82.70
2023-05-14T19:04:47.849Z,82.35
2023-05-14T19:07:19.909Z,82.00
2023-05-14T19:09:48.386Z,82.04
2023-05-14T19:12:16.513Z,81.93
2023-05-14T19:14:44.844Z,81.68
2023-05-14T19:17:13.092Z,81.08
2023-05-14T19:19:41.814Z,81.06
2023-05-14T19:22:09.938Z,80.53
2023-05-14T19:24:38.160Z,80.19
2023-05-14T19:27:06.489Z,80.49
2023-05-14T19:29:37.076Z,80.05
2023-05-14T19:32:05.927Z,80.22
2023-05-14T19:34:34.192Z,80.17
2023-05-14T19:37:02.828Z,80.32
2023-05-14T19:39:31.173Z,79.77
2023-05-14T19:41:59.638Z,79.29
2023-05-14T19:44:27.868Z,79.05
2023-05-14T19:46:55.966Z,78.73
2023-05-14T19:49:24.123Z,79.08
2023-05-14T19:51:52.378Z,79.99
2023-05-14T19:54:20.673Z,80.65
2023-05-14T19:56:49.346Z,80.69
2023-05-14T19:59:17.552Z,80.72
2023-05-14T20:01:46.124Z,80.86
2023-05-14T20:04:16.234Z,80.83
2023-05-14T20:06:45.663Z,81.01
2023-05-14T20:09:14.642Z,81.15
2023-05-14T20:11:42.859Z,81.22
2023-05-14T20:14:11.202Z,81.38
2023-05-14T20:16:39.464Z,81.61
2023-05-14T20:19:08.313Z,80.85
2023-05-14T20:21:36.525Z,81.22
2023-05-14T20:24:05.286Z,81.72
2023-05-14T20:26:33.529Z,82.80
2023-05-14T20:29:01.805Z,84.31
2023-05-14T20:31:30.017Z,83.84
2023-05-14T20:33:58.140Z,84.22
2023-05-14T20:36:29.842Z,85.68
2023-05-14T20:38:57.968Z,85.28
2023-05-14T20:41:26.636Z,85.79
2023-05-14T20:43:54.898Z,85.53
2023-05-14T20:46:23.253Z,84.85
2023-05-14T20:48:54.029Z,85.27
2023-05-14T20:51:22.240Z,84.97
2023-05-14T20:53:50.574Z,85.19
2023-05-14T20:56:18.716Z,85.33
2023-05-14T20:58:46.879Z,84.91
2023-05-14T21:01:15.199Z,84.76
2023-05-14T21:03:43.958Z,84.65
2023-05-14T21:06:12.273Z,84.54
2023-05-14T21:08:40.705Z,84.51
2023-05-14T21:11:08.971Z,84.82
2023-05-14T21:13:37.168Z,84.88
2023-05-14T21:16:05.864Z,84.80
2023-05-14T21:18:34.233Z,84.03
2023-05-14T21:21:02.503Z,83.97
2023-05-14T21:23:30.871Z,83.71
2023-05-14T21:25:59.079Z,83.53
2023-05-14T21:28:27.225Z,84.20
2023-05-14T21:30:55.280Z,85.92
2023-05-14T21:33:24.152Z,86.22
2023-05-14T21:35:52.328Z,85.47
2023-05-14T21:38:21.285Z,86.06
2023-05-14T21:40:49.539Z,85.43
2023-05-14T21:43:17.846Z,84.69
2023-05-14T21:45:49.445Z,84.30
2023-05-14T21:48:18.113Z,85.04
2023-05-14T21:50:46.285Z,85.52
2023-05-14T21:53:14.522Z,84.75
2023-05-14T21:55:42.647Z,85.26
2023-05-14T21:58:10.966Z,85.31
2023-05-14T22:00:39.220Z,84.82
2023-05-14T22:03:07.515Z,85.10
2023-05-14T22:05:36.110Z,85.53
2023-05-14T22:08:04.754Z,84.97
2023-05-14T22:10:32.791Z,84.97
2023-05-14T22:13:01.114Z,85.62
2023-05-14T22:15:29.291Z,85.56
2023-05-14T22:17:57.827Z,85.32
2023-05-14T22:20:26.082Z,84.96
2023-05-14T22:22:54.465Z,85.12
2023-05-14T22:25:22.925Z,84.87
2023-05-14T22:27:51.653Z,84.60
2023-05-14T22:30:19.814Z,84.52
2023-05-14T22:32:48.067Z,84.71
2023-05-14T22:35:17.287Z,84.62
2023-05-14T22:37:45.776Z,84.46
2023-05-14T22:40:14.780Z,84.91
2023-05-14T22:42:43.141Z,85.43
2023-05-14T22:45:11.785Z,85.81
2023-05-14T22:47:40.087Z,86.28
2023-05-14T22:50:11.649Z,86.35
2023-05-14T22:52:40.519Z,85.77
2023-05-14T22:55:09.461Z,85.19
2023-05-14T22:57:38.025Z,83.63
2023-05-14T23:00:08.010Z,83.31
2023-05-14T23:02:36.307Z,83.05
2023-05-14T23:05:05.580Z,82.07
2023-05-14T23:07:33.612Z,81.20
2023-05-14T23:10:02.013Z,81.86
2023-05-14T23:12:30.277Z,81.82
2023-05-14T23:14:59.465Z,81.82
2023-05-14T23:17:27.675Z,81.88
2023-05-14T23:19:56.192Z,82.79
2023-05-14T23:22:24.505Z,84.22
2023-05-14T23:24:52.793Z,84.50
2023-05-14T23:27:21.166Z,85.50
2023-05-14T23:29:49.285Z,85.57
2023-05-14T23:32:17.663Z,84.93
2023-05-14T23:34:46.144Z,85.15
2023-05-14T23:37:14.793Z,84.93
2023-05-14T23:39:42.959Z,84.18
2023-05-14T23:42:11.206Z,83.40
2023-05-14T23:44:39.520Z,84.05
2023-05-14T23:47:08.836Z,83.76
2023-05-14T23:49:37.055Z,84.41
2023-05-14T23:52:05.782Z,85.51
2023-05-14T23:54:33.988Z,85.21
2023-05-14T23:57:03.375Z,84.84
2023-05-14T23:59:31.666Z,85.65
